KDRO/DRO METAR and TAF weather

Enter ICAO airport designator
Station Type Date Time Source
KDRO METAR 2019/11/22 00:53 UTC NOAA

KDRO 220053Z AUTO 00000KT 10SM SCT046 BKN055 OVC110 03/00 A2995 RMK AO2 SLP146 T00330000


Station Type Date Time Source
KDRO Decoded METAR 2019/11/22 00:53 UTC NOAA

DURANGO-LA PLATA COUNTY AIRPORT , CO, United States (KDRO) 37-09N 107-46W 2035M
Nov 21, 2019 - 07:53 PM EST / 2019.11.22 0053 UTC
Wind: Calm:0
Visibility: 10 mile(s):0
Sky conditions: overcast
Temperature: 37.9 F (3.3 C)
Dew Point: 32.0 F (0.0 C)
Relative Humidity: 78%
Pressure (altimeter): 29.95 in. Hg (1014 hPa)
ob: KDRO 220053Z AUTO 00000KT 10SM SCT046 BKN055 OVC110 03/00 A2995 RMK AO2 SLP146 T00330000
cycle: 1

Station Type Date Time Source
KDRO TAF 2019/11/21 18:34 UTC NOAA

TAF KDRO 211731Z 2118/2218 15006KT P6SM SCT006 BKN040
FM212000 16007KT P6SM VCSH SCT021 OVC035
FM220300 VRB04KT P6SM VCSH SCT022 BKN025
FM220600 VRB03KT P6SM SCT021 OVC025
FM221200 24004KT P6SM SCT027 BKN030

Example: see airport list